Time;durP1;ratioP1;P1;durP2;ratioP2;P2;SDS_P1;SDS_P2;PMS_P1;PMS_P2;Temp;Humidity;BMP_temperature;BMP_pressure;BME280_temperature;BME280_humidity;BME280_pressure;Samples;Min_cycle;Max_cycle;Signal;HPM_P1;HPM_P2
2021/06/27 00:01:34;;;;;;;;;19.00;16.25;;;;;19.38;76.84;101108.22;5011155;28;45723;-73
2021/06/27 00:03:59;;;;;;;;;17.75;15.50;;;;;19.38;76.62;101108.22;5008409;28;45553;-72
2021/06/27 00:06:24;;;;;;;;;19.00;17.75;;;;;19.36;76.99;101106.78;5009390;28;45539;-72
2021/06/27 00:08:50;;;;;;;;;20.00;16.50;;;;;19.38;76.92;101121.63;5008248;28;45490;-72
2021/06/27 00:11:17;;;;;;;;;20.75;16.50;;;;;19.38;76.46;101123.50;5009089;28;46117;-72
2021/06/27 00:13:48;;;;;;;;;17.00;17.00;;;;;19.38;76.75;101126.16;5010669;28;45578;-74
2021/06/27 00:16:14;;;;;;;;;16.75;14.25;;;;;19.38;76.10;101124.31;5009972;28;45508;-73
2021/06/27 00:18:41;;;;;;;;;20.75;16.75;;;;;19.39;76.31;101119.81;5011883;28;45524;-72
2021/06/27 00:21:09;;;;;;;;;21.75;17.25;;;;;19.39;76.52;101112.59;5009660;28;46729;-72
2021/06/27 00:23:41;;;;;;;;;16.75;15.25;;;;;19.39;76.43;101125.97;5003521;28;45809;-72
2021/06/27 00:26:10;;;;;;;;;19.00;18.00;;;;;19.39;76.43;101130.53;5009035;28;45494;-72
2021/06/27 00:28:36;;;;;;;;;21.00;18.75;;;;;19.38;76.91;101135.03;5021380;28;46035;-72
2021/06/27 00:31:03;;;;;;;;;17.75;16.75;;;;;19.37;77.17;101133.38;5007699;28;46951;-74
2021/06/27 00:33:29;;;;;;;;;18.00;17.25;;;;;19.36;77.05;101138.94;5009283;28;45678;-72
2021/06/27 00:35:54;;;;;;;;;17.00;15.50;;;;;19.35;77.21;101135.44;5008478;28;45489;-72
2021/06/27 00:38:20;;;;;;;;;17.25;15.25;;;;;19.31;76.82;101135.00;5012238;28;45699;-70
2021/06/27 00:40:46;;;;;;;;;15.25;13.50;;;;;19.30;76.95;101127.16;5013851;28;45844;-73
2021/06/27 00:43:12;;;;;;;;;23.75;19.25;;;;;19.28;77.35;101123.84;5011344;28;45832;-73
2021/06/27 00:45:38;;;;;;;;;23.25;18.50;;;;;19.26;77.08;101131.25;5010612;28;45657;-73
2021/06/27 00:48:05;;;;;;;;;16.50;14.75;;;;;19.25;77.25;101146.50;5008257;28;45703;-73
2021/06/27 00:50:38;;;;;;;;;20.50;16.00;;;;;19.24;77.66;101152.91;5002830;28;45701;-73
2021/06/27 00:53:04;;;;;;;;;21.25;17.50;;;;;19.22;77.94;101133.50;5010525;28;45638;-73
2021/06/27 00:55:30;;;;;;;;;18.50;16.25;;;;;19.23;77.48;101137.81;5010828;28;45460;-72
2021/06/27 00:57:55;;;;;;;;;17.00;15.25;;;;;19.22;77.74;101144.22;5011033;28;45774;-72
2021/06/27 01:00:25;;;;;;;;;18.25;17.75;;;;;19.23;77.50;101145.03;5007531;28;45721;-73
2021/06/27 01:02:51;;;;;;;;;20.25;19.00;;;;;19.22;77.54;101143.41;5005385;28;45541;-72
2021/06/27 01:05:19;;;;;;;;;18.25;17.00;;;;;19.19;77.61;101149.97;5007644;28;45585;-73
2021/06/27 01:07:45;;;;;;;;;23.50;21.25;;;;;19.18;78.24;101144.81;5012046;28;45516;-70
2021/06/27 01:10:12;;;;;;;;;15.75;15.50;;;;;19.17;78.14;101145.84;5008802;28;45604;-72
2021/06/27 01:12:38;;;;;;;;;18.75;17.50;;;;;19.14;78.24;101136.34;5009208;28;45746;-73
2021/06/27 01:15:06;;;;;;;;;19.00;18.00;;;;;19.11;78.62;101128.69;5008189;28;45559;-74
2021/06/27 01:17:32;;;;;;;;;24.00;21.25;;;;;19.07;79.00;101106.00;5007200;28;45706;-73
2021/06/27 01:19:57;;;;;;;;;19.25;19.25;;;;;19.02;79.75;101098.56;5010730;28;45425;-71
2021/06/27 01:22:25;;;;;;;;;21.50;18.50;;;;;18.96;79.71;101099.31;5010694;28;45567;-72
2021/06/27 01:24:50;;;;;;;;;18.75;18.25;;;;;18.92;78.97;101103.44;5010020;28;45457;-72
2021/06/27 01:27:16;;;;;;;;;23.50;17.75;;;;;18.86;80.16;101102.34;5012973;28;45676;-72
2021/06/27 01:29:41;;;;;;;;;19.00;18.00;;;;;18.79;79.31;101103.31;5013860;28;46050;-72
2021/06/27 01:32:10;;;;;;;;;20.50;18.50;;;;;18.77;79.74;101110.72;5011815;28;45460;-71
2021/06/27 01:34:38;;;;;;;;;18.25;18.25;;;;;18.75;79.57;101110.91;5010762;28;45381;-72
2021/06/27 01:37:04;;;;;;;;;20.75;19.00;;;;;18.74;80.31;101101.19;5011603;28;45519;-72
2021/06/27 01:39:30;;;;;;;;;18.75;18.25;;;;;18.75;80.33;101083.28;5011085;28;45547;-71
2021/06/27 01:41:55;;;;;;;;;18.25;17.25;;;;;18.76;80.56;101079.63;5014752;28;45544;-72
2021/06/27 01:44:20;;;;;;;;;19.25;16.75;;;;;18.76;80.36;101071.59;5011629;28;45393;-72
2021/06/27 01:46:46;;;;;;;;;19.00;18.00;;;;;18.74;80.66;101069.06;5015415;28;45584;-74
2021/06/27 01:49:12;;;;;;;;;20.50;19.75;;;;;18.76;80.86;101071.59;5014401;28;45517;-74
2021/06/27 01:51:39;;;;;;;;;20.50;18.50;;;;;18.75;80.88;101069.91;5013416;28;45420;-73
2021/06/27 01:54:06;;;;;;;;;18.75;17.50;;;;;18.76;81.03;101058.19;5016736;28;45445;-71
2021/06/27 01:56:33;;;;;;;;;21.50;18.50;;;;;18.75;81.50;101059.19;5012747;28;45401;-73
2021/06/27 01:59:02;;;;;;;;;23.50;21.50;;;;;18.74;81.55;101062.88;5013832;28;46601;-72
2021/06/27 02:01:39;;;;;;;;;21.25;19.50;;;;;18.73;82.00;101058.56;5012007;28;45406;-72
2021/06/27 02:04:06;;;;;;;;;27.25;20.00;;;;;18.73;82.26;101070.09;5005250;28;45515;-73
2021/06/27 02:06:38;;;;;;;;;21.50;20.75;;;;;18.73;82.26;101071.94;5012701;28;45599;-73
2021/06/27 02:09:09;;;;;;;;;20.00;20.00;;;;;18.72;82.27;101059.56;5014560;28;45418;-71
2021/06/27 02:11:35;;;;;;;;;25.00;23.75;;;;;18.68;82.03;101043.91;5005564;28;45641;-72
2021/06/27 02:14:01;;;;;;;;;25.00;21.75;;;;;18.70;81.82;101046.41;5013423;28;45607;-74
2021/06/27 02:16:27;;;;;;;;;22.50;21.50;;;;;18.69;81.81;101048.25;5012120;28;45450;-70
2021/06/27 02:18:54;;;;;;;;;22.25;19.75;;;;;18.68;81.23;101046.59;5009358;28;45552;-72
2021/06/27 02:21:25;;;;;;;;;25.50;25.50;;;;;18.67;81.81;101025.38;5010961;28;45481;-72
2021/06/27 02:23:51;;;;;;;;;21.50;17.75;;;;;18.66;81.59;101011.13;5011821;28;45525;-71
2021/06/27 02:26:18;;;;;;;;;19.00;19.00;;;;;18.62;81.37;101012.56;5009784;28;45929;-73
2021/06/27 02:28:46;;;;;;;;;20.75;19.50;;;;;18.62;81.39;101003.69;5007506;28;45704;-71
2021/06/27 02:31:12;;;;;;;;;18.75;16.00;;;;;18.60;81.63;100995.88;5012459;28;45571;-72
2021/06/27 02:33:38;;;;;;;;;20.00;17.50;;;;;18.59;81.21;100986.19;5010960;28;45490;-72
2021/06/27 02:36:04;;;;;;;;;20.50;17.25;;;;;18.57;81.66;100974.88;5010695;28;45640;-74
2021/06/27 02:38:30;;;;;;;;;19.50;18.00;;;;;18.55;81.20;100963.53;5006405;28;46934;-72
2021/06/27 02:40:55;;;;;;;;;21.50;18.50;;;;;18.53;81.38;100965.56;5013620;28;45593;-72
2021/06/27 02:43:22;;;;;;;;;22.25;20.50;;;;;18.51;81.46;100959.56;5010833;28;45911;-75
2021/06/27 02:45:48;;;;;;;;;22.75;20.00;;;;;18.51;81.55;100966.78;5011326;28;45851;-74
2021/06/27 02:48:14;;;;;;;;;20.00;18.75;;;;;18.50;81.67;100965.13;5009638;28;47148;-73
2021/06/27 02:50:40;;;;;;;;;20.75;20.00;;;;;18.51;81.88;100969.47;5007599;28;45532;-72
2021/06/27 02:53:07;;;;;;;;;21.25;20.75;;;;;18.50;81.11;100968.63;5007317;28;45596;-72
2021/06/27 02:55:33;;;;;;;;;18.75;18.75;;;;;18.50;81.24;100960.59;5009639;28;45727;-72
2021/06/27 02:57:58;;;;;;;;;20.00;18.75;;;;;18.51;81.40;100966.78;5008575;28;45546;-75
2021/06/27 03:00:24;;;;;;;;;16.50;15.50;;;;;18.51;81.47;100978.31;5004703;28;45524;-72
2021/06/27 03:02:50;;;;;;;;;22.00;19.50;;;;;18.52;81.07;100988.00;5010105;28;45496;-74
2021/06/27 03:05:17;;;;;;;;;18.50;17.50;;;;;18.49;81.83;100988.38;5009525;28;45583;-75
2021/06/27 03:07:43;;;;;;;;;21.25;18.75;;;;;18.45;81.33;100981.78;5008756;28;45536;-71
2021/06/27 03:10:14;;;;;;;;;16.75;15.50;;;;;18.42;81.26;100976.78;5008429;28;45520;-70
2021/06/27 03:12:43;;;;;;;;;19.00;19.00;;;;;18.41;81.70;100977.81;5000906;28;45374;-73
2021/06/27 03:15:11;;;;;;;;;21.50;18.00;;;;;18.37;82.71;100972.06;5008913;28;45327;-74
2021/06/27 03:17:36;;;;;;;;;19.00;18.00;;;;;18.32;82.22;100961.09;5005797;28;47241;-75
2021/06/27 03:20:04;;;;;;;;;19.25;16.75;;;;;18.34;81.92;100966.25;5009501;28;45637;-72
2021/06/27 03:22:30;;;;;;;;;20.25;18.00;;;;;18.34;81.80;100960.91;5009437;28;45501;-72
2021/06/27 03:24:55;;;;;;;;;20.50;18.25;;;;;18.35;82.07;100957.22;5009073;28;45663;-73
2021/06/27 03:27:21;;;;;;;;;21.75;19.75;;;;;18.35;81.81;100959.91;5009852;28;46296;-70
2021/06/27 03:29:47;;;;;;;;;20.25;17.25;;;;;18.37;82.38;100966.69;5010460;28;45636;-75
2021/06/27 03:32:13;;;;;;;;;20.75;18.50;;;;;18.37;81.91;100961.34;5009413;28;45402;-74
2021/06/27 03:34:39;;;;;;;;;20.00;17.75;;;;;18.37;81.42;100960.50;5011290;28;45428;-72
2021/06/27 03:37:05;;;;;;;;;22.75;17.75;;;;;18.36;81.25;100953.50;5011192;28;45597;-70
2021/06/27 03:39:30;;;;;;;;;18.50;18.50;;;;;18.37;81.53;100949.78;5008875;28;45478;-75
2021/06/27 03:41:56;;;;;;;;;18.25;16.50;;;;;18.36;81.66;100943.63;5011545;28;45827;-74
2021/06/27 03:44:25;;;;;;;;;19.00;17.00;;;;;18.36;81.10;100942.81;5009901;28;45610;-70
2021/06/27 03:46:51;;;;;;;;;21.00;20.00;;;;;18.35;82.06;100941.16;5007649;28;48275;-72
2021/06/27 03:49:17;;;;;;;;;21.25;17.50;;;;;18.32;81.63;100942.34;5008101;28;45717;-72
2021/06/27 03:51:43;;;;;;;;;17.00;16.75;;;;;18.32;81.89;100957.59;5010273;28;45479;-72
2021/06/27 03:54:09;;;;;;;;;21.50;20.25;;;;;18.33;81.77;100964.59;5007590;28;45769;-72
2021/06/27 03:56:34;;;;;;;;;23.50;20.00;;;;;18.33;82.29;100970.78;5008437;28;46107;-74
2021/06/27 03:59:00;;;;;;;;;18.75;18.25;;;;;18.34;82.26;100979.63;5012228;28;45578;-72
2021/06/27 04:01:25;;;;;;;;;18.00;16.75;;;;;18.30;82.10;100976.53;5008374;28;45655;-71
2021/06/27 04:03:51;;;;;;;;;18.50;17.50;;;;;18.30;81.80;100975.69;5008671;28;45846;-72
2021/06/27 04:06:16;;;;;;;;;19.50;19.00;;;;;18.27;82.81;100980.41;5008385;28;45429;-72
2021/06/27 04:08:42;;;;;;;;;21.00;18.25;;;;;18.24;82.16;100978.09;5011271;28;45551;-74
2021/06/27 04:11:08;;;;;;;;;24.50;21.50;;;;;18.23;81.92;100976.47;5026625;28;45477;-70
2021/06/27 04:13:36;;;;;;;;;18.25;18.25;;;;;18.24;82.59;100974.63;5011447;28;45560;-74
2021/06/27 04:16:03;;;;;;;;;18.00;17.00;;;;;18.23;83.27;100970.28;5008818;28;46625;-74
2021/06/27 04:18:29;;;;;;;;;18.25;16.50;;;;;18.19;82.53;100969.84;5010504;28;45425;-73
2021/06/27 04:20:56;;;;;;;;;20.50;18.25;;;;;18.20;83.18;100971.50;5010281;28;45439;-71
2021/06/27 04:23:23;;;;;;;;;20.25;19.25;;;;;18.20;82.49;100970.66;5008649;28;45383;-72
2021/06/27 04:25:48;;;;;;;;;19.75;18.75;;;;;18.19;82.25;100966.34;5010338;28;45820;-72
2021/06/27 04:28:14;;;;;;;;;19.75;19.00;;;;;18.20;82.69;100970.66;5006861;28;45942;-72
2021/06/27 04:30:40;;;;;;;;;17.75;17.75;;;;;18.22;82.60;100972.16;5023108;28;45539;-75
2021/06/27 04:33:07;;;;;;;;;21.00;19.00;;;;;18.25;83.23;100974.44;5007770;28;45445;-72
2021/06/27 04:35:35;;;;;;;;;21.75;20.00;;;;;18.27;83.00;100964.38;5006596;28;45568;-74
2021/06/27 04:38:06;;;;;;;;;20.50;17.75;;;;;18.31;82.48;100963.97;5006724;28;45497;-72
2021/06/27 04:40:32;;;;;;;;;21.75;19.75;;;;;18.33;83.22;100968.09;5009996;28;45464;-71
2021/06/27 04:42:57;;;;;;;;;18.00;16.50;;;;;18.35;82.88;100968.75;5011136;28;45525;-71
2021/06/27 04:45:23;;;;;;;;;18.25;17.00;;;;;18.38;83.31;100968.34;5008696;28;45611;-72
2021/06/27 04:47:49;;;;;;;;;19.25;17.75;;;;;18.40;83.05;100963.63;5009281;28;45508;-72
2021/06/27 04:50:14;;;;;;;;;18.50;17.00;;;;;18.41;83.29;100962.59;5008201;28;45397;-73
2021/06/27 04:52:39;;;;;;;;;21.00;19.50;;;;;18.41;83.47;100949.22;5010724;28;45467;-74
2021/06/27 04:55:06;;;;;;;;;23.00;19.25;;;;;18.44;83.03;100962.19;5006409;28;45544;-72
2021/06/27 04:57:32;;;;;;;;;20.50;19.50;;;;;18.46;83.11;100959.34;5007438;28;45384;-73
2021/06/27 04:59:57;;;;;;;;;27.25;22.75;;;;;18.47;83.00;100956.47;5009821;28;45536;-71
2021/06/27 05:02:23;;;;;;;;;23.50;19.75;;;;;18.48;83.10;100966.16;5011358;28;45507;-72
2021/06/27 05:04:48;;;;;;;;;21.00;19.50;;;;;18.51;82.73;100956.06;5014052;28;46453;-72
2021/06/27 05:07:14;;;;;;;;;23.75;17.25;;;;;18.51;83.54;100954.22;5012720;28;45659;-72
2021/06/27 05:09:39;;;;;;;;;22.50;20.00;;;;;18.48;82.81;100960.78;5012104;28;45780;-71
2021/06/27 05:12:05;;;;;;;;;18.75;18.75;;;;;18.51;82.83;100959.56;5007899;28;45444;-72
2021/06/27 05:14:30;;;;;;;;;19.25;18.75;;;;;18.53;82.66;100962.88;5009394;28;45449;-73
2021/06/27 05:16:56;;;;;;;;;17.50;15.75;;;;;18.55;82.48;100958.16;5014497;28;46039;-74
2021/06/27 05:19:21;;;;;;;;;22.50;19.25;;;;;18.59;82.51;100963.94;5001789;28;45536;-70
2021/06/27 05:21:46;;;;;;;;;18.75;18.50;;;;;18.60;82.45;100958.41;5007258;28;45568;-74
2021/06/27 05:24:12;;;;;;;;;22.75;17.75;;;;;18.64;82.72;100965.03;5004718;28;46543;-70
2021/06/27 05:26:37;;;;;;;;;25.00;20.50;;;;;18.67;82.45;100961.13;5005760;28;45556;-70
2021/06/27 05:29:03;;;;;;;;;22.75;20.50;;;;;18.69;83.00;100965.25;5011846;28;45748;-75
2021/06/27 05:31:28;;;;;;;;;17.25;15.25;;;;;18.72;82.83;100963.19;5009551;28;45455;-75
2021/06/27 05:33:54;;;;;;;;;21.75;19.00;;;;;18.72;81.85;100958.69;5011625;28;46355;-74
2021/06/27 05:36:19;;;;;;;;;16.50;16.00;;;;;18.73;82.48;100952.28;5010120;28;45516;-69
2021/06/27 05:38:44;;;;;;;;;17.00;14.50;;;;;18.77;82.88;100961.63;5010902;28;45903;-76
2021/06/27 05:41:10;;;;;;;;;20.25;17.75;;;;;18.79;82.83;100964.09;5011797;28;45890;-69
2021/06/27 05:43:35;;;;;;;;;21.00;19.50;;;;;18.82;83.04;100955.69;5010928;28;46136;-73
2021/06/27 05:46:02;;;;;;;;;24.75;22.75;;;;;18.83;82.95;100952.78;5009560;28;45425;-71
2021/06/27 05:48:28;;;;;;;;;24.00;20.00;;;;;18.87;82.48;100954.06;5008223;28;45777;-73
2021/06/27 05:50:53;;;;;;;;;20.25;18.25;;;;;18.88;82.87;100961.06;5008114;28;45465;-71
2021/06/27 05:53:19;;;;;;;;;23.25;18.75;;;;;18.92;82.16;100964.19;5011248;28;46034;-73
2021/06/27 05:55:44;;;;;;;;;17.25;17.00;;;;;18.96;82.10;100959.22;5010558;28;45553;-71
2021/06/27 05:58:09;;;;;;;;;18.00;16.50;;;;;18.99;82.27;100964.19;5008324;28;45619;-72
2021/06/27 06:00:35;;;;;;;;;20.50;17.50;;;;;19.02;81.63;100969.16;5007466;28;45567;-72
2021/06/27 06:03:00;;;;;;;;;24.75;18.50;;;;;19.04;81.44;100967.94;5006384;28;45570;-72
2021/06/27 06:05:26;;;;;;;;;17.25;16.50;;;;;19.04;81.14;100975.13;5010186;28;45573;-70
2021/06/27 06:07:52;;;;;;;;;19.50;18.50;;;;;19.02;81.04;100975.34;5012285;28;45767;-72
2021/06/27 06:10:18;;;;;;;;;22.00;21.00;;;;;19.03;80.83;100971.63;5006691;28;45580;-72
2021/06/27 06:12:43;;;;;;;;;24.25;20.25;;;;;19.05;80.91;100980.28;5008888;28;46929;-70
2021/06/27 06:15:09;;;;;;;;;21.25;18.75;;;;;19.05;80.80;100976.78;5011543;28;45444;-71
2021/06/27 06:17:35;;;;;;;;;23.00;18.25;;;;;19.05;80.55;100976.78;5005806;28;45617;-71
2021/06/27 06:20:00;;;;;;;;;23.75;21.75;;;;;19.02;80.70;100967.31;5013487;28;45644;-70
2021/06/27 06:22:27;;;;;;;;;21.50;19.75;;;;;19.04;81.10;100973.31;5005628;28;47347;-72
2021/06/27 06:24:52;;;;;;;;;28.25;21.50;;;;;19.02;80.99;100964.63;5011119;28;45465;-70
2021/06/27 06:27:17;;;;;;;;;18.25;18.25;;;;;19.06;80.56;100968.53;5010323;28;45474;-71
2021/06/27 06:29:43;;;;;;;;;20.00;17.50;;;;;19.11;80.42;100963.44;5010628;28;45682;-73
2021/06/27 06:32:12;;;;;;;;;23.00;18.75;;;;;19.15;80.61;100965.72;5004992;28;46126;-73
2021/06/27 06:34:37;;;;;;;;;19.50;19.50;;;;;19.24;81.79;100972.56;5010372;28;45365;-73
2021/06/27 06:37:02;;;;;;;;;21.00;18.50;;;;;19.30;80.53;100963.69;5007241;28;46654;-72
2021/06/27 06:39:28;;;;;;;;;23.00;21.50;;;;;19.34;80.53;100962.28;5014358;28;45421;-72
2021/06/27 06:41:53;;;;;;;;;19.75;19.50;;;;;19.43;79.64;100961.06;5024342;28;45452;-72
2021/06/27 06:44:19;;;;;;;;;20.25;18.25;;;;;19.48;79.91;100966.63;5013544;28;45691;-73
2021/06/27 06:46:44;;;;;;;;;20.75;17.75;;;;;19.51;80.18;100966.25;5013139;28;45912;-73
2021/06/27 06:49:09;;;;;;;;;19.25;19.25;;;;;19.53;79.30;100969.56;5009222;28;45536;-73
2021/06/27 06:51:35;;;;;;;;;21.75;18.25;;;;;19.54;79.08;100962.34;5009562;28;45373;-72
2021/06/27 06:54:00;;;;;;;;;19.50;16.50;;;;;19.55;79.53;100964.78;5013523;28;45346;-73
2021/06/27 06:56:25;;;;;;;;;18.25;17.75;;;;;19.64;79.58;100968.13;5012066;28;45930;-70
2021/06/27 06:58:51;;;;;;;;;21.25;17.25;;;;;19.70;78.48;100961.16;5012768;28;45612;-72
2021/06/27 07:01:17;;;;;;;;;15.00;13.00;;;;;19.73;77.49;100964.25;5015775;28;45511;-72
2021/06/27 07:03:46;;;;;;;;;16.25;15.50;;;;;19.77;77.31;100968.16;5016004;28;45589;-70
2021/06/27 07:06:12;;;;;;;;;19.00;16.50;;;;;19.81;75.99;100965.91;5007961;28;45530;-71
2021/06/27 07:08:38;;;;;;;;;19.75;16.25;;;;;19.84;76.17;100962.81;5007292;28;45523;-75
2021/06/27 07:11:03;;;;;;;;;21.25;18.00;;;;;19.86;75.63;100966.13;5012754;28;45528;-70
2021/06/27 07:13:29;;;;;;;;;17.50;17.00;;;;;19.88;76.38;100972.13;5009432;28;45570;-70
2021/06/27 07:15:54;;;;;;;;;23.25;18.25;;;;;19.95;77.69;100966.75;5007371;28;45572;-70
2021/06/27 07:18:20;;;;;;;;;19.25;17.75;;;;;20.03;76.46;100969.25;5011174;28;45587;-74
2021/06/27 07:20:46;;;;;;;;;20.50;16.25;;;;;20.09;75.85;100967.59;5006621;28;45684;-72
2021/06/27 07:23:12;;;;;;;;;18.25;15.25;;;;;20.10;74.98;100962.03;5009812;28;45581;-71
2021/06/27 07:25:37;;;;;;;;;19.00;17.75;;;;;20.10;75.16;100977.28;5012169;28;45422;-70
2021/06/27 07:28:03;;;;;;;;;17.25;16.50;;;;;20.10;76.94;100963.84;5012655;28;45563;-73
2021/06/27 07:30:29;;;;;;;;;17.50;17.50;;;;;20.12;74.78;100964.47;5021553;28;45657;-73
2021/06/27 07:32:54;;;;;;;;;16.50;16.50;;;;;20.09;76.08;100964.91;5010906;28;45471;-72
2021/06/27 07:35:20;;;;;;;;;17.00;16.50;;;;;20.10;76.82;100961.16;5010767;28;45543;-74
2021/06/27 07:37:45;;;;;;;;;21.50;17.50;;;;;20.14;77.68;100957.88;5012409;28;45458;-75
2021/06/27 07:40:12;;;;;;;;;21.00;18.25;;;;;20.16;74.97;100961.19;5010877;28;46580;-71
2021/06/27 07:42:37;;;;;;;;;16.75;15.75;;;;;20.14;74.95;100965.09;5012576;28;45966;-74
2021/06/27 07:45:04;;;;;;;;;19.25;17.50;;;;;20.12;76.13;100965.28;5005005;28;46618;-73
2021/06/27 07:47:29;;;;;;;;;20.25;18.00;;;;;20.18;76.09;100956.44;5005239;28;45386;-75
2021/06/27 07:49:55;;;;;;;;;15.75;15.75;;;;;20.28;77.26;100953.34;5009561;28;47004;-76
2021/06/27 07:52:20;;;;;;;;;17.25;15.00;;;;;20.32;75.17;100953.72;5008457;28;45356;-69
2021/06/27 07:54:45;;;;;;;;;21.50;19.25;;;;;20.33;75.49;100950.84;5009803;28;45658;-70
2021/06/27 07:57:11;;;;;;;;;18.50;18.00;;;;;20.37;75.39;100938.63;5009599;28;45579;-70
2021/06/27 07:59:36;;;;;;;;;20.75;16.75;;;;;20.46;75.12;100946.50;5005901;28;47915;-71
2021/06/27 08:02:02;;;;;;;;;19.25;16.50;;;;;20.44;74.82;100946.69;5007314;28;45575;-73
2021/06/27 08:04:28;;;;;;;;;19.50;17.25;;;;;20.46;74.85;100941.94;4998168;28;45478;-70
2021/06/27 08:06:53;;;;;;;;;19.75;17.75;;;;;20.46;73.39;100944.63;5004786;28;45988;-70
2021/06/27 08:09:20;;;;;;;;;18.75;15.25;;;;;20.47;74.80;100945.44;4998904;28;46305;-74
2021/06/27 08:11:46;;;;;;;;;18.25;15.50;;;;;20.48;73.70;100949.81;5004444;28;45565;-75
2021/06/27 08:14:11;;;;;;;;;19.50;17.75;;;;;20.51;74.21;100947.50;5004951;28;45642;-70
2021/06/27 08:16:37;;;;;;;;;17.00;16.25;;;;;20.59;74.28;100949.16;5004615;28;45603;-74
2021/06/27 08:19:05;;;;;;;;;17.00;17.00;;;;;20.73;73.56;100947.28;4998832;28;48193;-75
2021/06/27 08:21:31;;;;;;;;;19.75;18.00;;;;;20.82;72.88;100956.75;5000543;28;45701;-75
2021/06/27 08:23:56;;;;;;;;;18.50;17.25;;;;;20.88;72.96;100953.22;5001035;28;45559;-75
2021/06/27 08:26:23;;;;;;;;;17.25;16.50;;;;;20.95;73.51;100954.03;4996600;28;45684;-74
2021/06/27 08:28:53;;;;;;;;;21.00;17.25;;;;;21.00;72.76;100956.09;5007484;28;46343;-74
2021/06/27 08:31:22;;;;;;;;;15.75;15.75;;;;;21.00;70.79;100964.16;5010234;28;45503;-75
2021/06/27 08:33:50;;;;;;;;;17.00;17.00;;;;;20.94;72.45;100967.66;5024568;28;45742;-71
2021/06/27 08:36:15;;;;;;;;;19.75;17.00;;;;;20.95;72.57;100974.69;5010479;28;46142;-75
2021/06/27 08:38:40;;;;;;;;;17.50;17.25;;;;;20.97;72.02;100969.94;5011273;28;45457;-74
2021/06/27 08:41:06;;;;;;;;;19.00;17.75;;;;;20.99;73.35;100971.38;5012276;28;45564;-73
2021/06/27 08:43:33;;;;;;;;;21.00;18.75;;;;;21.07;73.11;100978.38;5009623;28;45561;-74
2021/06/27 08:46:05;;;;;;;;;18.25;16.75;;;;;21.07;72.53;100980.22;5012632;28;45504;-74
2021/06/27 08:48:36;;;;;;;;;18.50;17.25;;;;;21.12;73.04;100975.06;5010078;28;47864;-71
2021/06/27 08:51:01;;;;;;;;;15.75;15.75;;;;;21.18;72.79;100972.31;5011856;28;45422;-73
2021/06/27 08:53:27;;;;;;;;;16.75;16.25;;;;;21.19;72.28;100963.25;5013307;28;45575;-74
2021/06/27 08:56:05;;;;;;;;;22.00;16.50;;;;;21.18;72.28;100964.25;5015900;28;45417;-74
2021/06/27 08:58:34;;;;;;;;;20.75;18.25;;;;;21.15;71.19;100977.31;5010635;28;45658;-70
2021/06/27 09:01:02;;;;;;;;;22.50;17.50;;;;;21.06;72.40;100979.41;5012536;28;45548;-74
2021/06/27 09:03:27;;;;;;;;;17.50;16.50;;;;;21.05;72.50;100969.72;5016950;28;45619;-74
2021/06/27 09:05:54;;;;;;;;;17.75;16.00;;;;;21.04;72.14;100976.94;5011845;28;45529;-75
2021/06/27 09:08:20;;;;;;;;;20.75;19.75;;;;;20.98;72.62;100975.09;5010999;28;46455;-74
2021/06/27 09:10:45;;;;;;;;;18.00;17.00;;;;;21.00;73.35;100985.63;5014557;28;45601;-74
2021/06/27 09:13:11;;;;;;;;;19.25;19.00;;;;;20.99;73.10;100983.97;5018935;28;45423;-76
2021/06/27 09:15:46;;;;;;;;;21.50;18.50;;;;;21.01;73.89;100979.22;5010454;28;45552;-75
2021/06/27 09:18:15;;;;;;;;;17.50;17.50;;;;;21.03;74.25;100977.16;5012002;28;46373;-75
2021/06/27 09:20:51;;;;;;;;;17.75;16.25;;;;;21.04;73.78;100985.00;5006604;28;45501;-74
2021/06/27 09:23:31;;;;;;;;;17.50;15.25;;;;;21.01;73.28;100982.72;5016000;28;45831;-71
2021/06/27 09:25:56;;;;;;;;;20.50;19.75;;;;;21.04;74.15;100973.41;5017397;28;45738;-74
2021/06/27 09:28:22;;;;;;;;;21.25;18.50;;;;;21.13;73.96;100982.06;5012128;28;46210;-70
2021/06/27 09:30:53;;;;;;;;;20.25;18.00;;;;;21.17;73.91;100978.75;5004112;28;45752;-73
2021/06/27 09:33:23;;;;;;;;;20.50;17.50;;;;;21.25;73.48;100981.19;5023648;28;45490;-75
2021/06/27 09:35:55;;;;;;;;;18.75;18.75;;;;;21.27;73.31;100986.34;5011063;28;45683;-70
2021/06/27 09:38:26;;;;;;;;;23.00;20.00;;;;;21.26;74.51;100985.53;5008830;28;46211;-70
2021/06/27 09:41:11;;;;;;;;;20.50;19.00;;;;;21.30;73.94;100987.78;5010477;28;45555;-66
2021/06/27 09:43:37;;;;;;;;;21.75;19.75;;;;;21.18;74.13;100991.13;5015836;28;45470;-71
2021/06/27 09:46:17;;;;;;;;;19.25;19.25;;;;;21.09;74.03;100995.09;5006854;28;45737;-74
2021/06/27 09:48:53;;;;;;;;;18.50;15.75;;;;;21.03;75.28;100995.94;5006998;28;45580;-71
2021/06/27 09:51:21;;;;;;;;;21.50;19.75;;;;;21.04;74.47;100997.59;5009340;28;45571;-72
2021/06/27 09:53:47;;;;;;;;;25.00;20.75;;;;;20.98;74.73;101003.81;5011738;28;45619;-73
2021/06/27 09:56:13;;;;;;;;;21.25;17.50;;;;;20.95;74.71;101009.63;5012239;28;45571;-67
2021/06/27 09:58:39;;;;;;;;;19.75;18.25;;;;;20.97;74.95;101011.06;5010173;28;45583;-73
2021/06/27 10:01:26;;;;;;;;;21.00;20.00;;;;;20.97;74.57;101016.44;5008864;28;45557;-66
2021/06/27 10:03:56;;;;;;;;;21.00;18.50;;;;;20.97;75.03;101016.44;5014837;28;45688;-64
2021/06/27 10:06:29;;;;;;;;;22.00;21.00;;;;;20.97;74.89;101023.69;5009519;28;45514;-66
2021/06/27 10:09:06;;;;;;;;;23.50;21.00;;;;;21.00;75.81;101026.75;5008002;28;45596;-67
2021/06/27 10:11:31;;;;;;;;;22.25;20.75;;;;;21.00;75.20;101015.19;5007910;28;45590;-70
2021/06/27 10:14:06;;;;;;;;;22.25;19.50;;;;;21.06;74.84;101022.41;5010467;28;45540;-66
2021/06/27 10:16:33;;;;;;;;;23.25;19.50;;;;;21.09;74.76;101019.28;5011071;28;45441;-66
2021/06/27 10:19:00;;;;;;;;;22.25;19.50;;;;;21.16;75.82;101025.47;5009171;28;45566;-69
2021/06/27 10:21:27;;;;;;;;;26.50;22.00;;;;;21.24;76.06;101025.25;5007789;28;45592;-67
2021/06/27 10:23:53;;;;;;;;;21.25;20.00;;;;;21.39;76.67;101030.38;5007046;28;45540;-65
2021/06/27 10:26:21;;;;;;;;;19.50;18.25;;;;;21.57;76.04;101026.97;5006270;28;45596;-70
2021/06/27 10:28:48;;;;;;;;;21.25;19.75;;;;;21.73;75.43;101040.94;5010813;28;45528;-65
2021/06/27 10:31:15;;;;;;;;;21.00;20.00;;;;;21.83;75.27;101039.44;5008323;28;45552;-65
2021/06/27 10:33:42;;;;;;;;;23.00;21.25;;;;;21.91;74.51;101038.38;5010921;28;45840;-71
2021/06/27 10:36:10;;;;;;;;;23.50;20.75;;;;;22.02;73.97;101045.75;5008278;28;45476;-66
2021/06/27 10:38:40;;;;;;;;;20.50;19.50;;;;;22.11;73.94;101047.13;5006070;28;46648;-70
2021/06/27 10:41:05;;;;;;;;;21.75;19.75;;;;;22.20;73.25;101044.19;5003117;28;45457;-66
2021/06/27 10:44:01;;;;;;;;;21.00;19.25;;;;;22.22;73.27;101042.94;5006959;28;46137;-67
2021/06/27 10:46:48;;;;;;;;;24.25;20.50;;;;;22.20;73.32;101036.94;5004659;28;46433;-64
2021/06/27 10:49:32;;;;;;;;;24.25;23.00;;;;;22.15;71.80;101046.69;5007290;28;47546;-67
2021/06/27 10:52:03;;;;;;;;;23.25;20.75;;;;;22.03;73.65;101047.41;5008332;28;45630;-73
2021/06/27 10:54:36;;;;;;;;;21.00;19.50;;;;;21.96;73.44;101041.25;5005367;28;45828;-66
2021/06/27 10:57:11;;;;;;;;;22.75;21.25;;;;;21.82;73.65;101045.88;5014581;28;45860;-66
2021/06/27 10:59:47;;;;;;;;;26.00;21.00;;;;;21.77;74.90;101050.25;5009081;28;46549;-66
2021/06/27 11:02:41;;;;;;;;;23.25;20.50;;;;;21.80;74.21;101047.13;4999096;28;45461;-66
2021/06/27 11:05:36;;;;;;;;;19.25;17.25;;;;;21.77;72.64;101043.00;5003937;28;45780;-71
2021/06/27 11:08:03;;;;;;;;;18.50;17.50;;;;;21.73;73.36;101051.72;5004607;28;45508;-68
2021/06/27 11:10:31;;;;;;;;;16.75;16.00;;;;;21.69;74.41;101052.16;5005507;28;45518;-69